createdAt,value
2023-02-17T00:00:32.191Z,13.06
2023-02-17T00:02:06.450Z,13.07
2023-02-17T00:03:38.107Z,13.06
2023-02-17T00:05:09.687Z,13.05
2023-02-17T00:06:42.624Z,13.04
2023-02-17T00:08:14.207Z,13.02
2023-02-17T00:09:45.799Z,13.04
2023-02-17T00:11:17.958Z,13.01
2023-02-17T00:12:49.571Z,13.02
2023-02-17T00:14:21.316Z,13.02
2023-02-17T00:15:53.038Z,12.99
2023-02-17T00:17:24.594Z,13.03
2023-02-17T00:18:56.955Z,13.02
2023-02-17T00:20:29.286Z,13.03
2023-02-17T00:22:02.457Z,13.04
2023-02-17T00:23:34.001Z,13.03
2023-02-17T00:25:06.004Z,13.02
2023-02-17T00:26:37.675Z,13.00
2023-02-17T00:28:09.621Z,13.02
2023-02-17T00:29:41.194Z,13.01
2023-02-17T00:31:14.432Z,13.00
2023-02-17T00:32:46.123Z,13.03
2023-02-17T00:34:17.730Z,13.03
2023-02-17T00:35:49.309Z,13.02
2023-02-17T00:37:22.431Z,13.03
2023-02-17T00:38:55.020Z,13.04
2023-02-17T00:40:26.550Z,13.02
2023-02-17T00:41:58.114Z,13.02
2023-02-17T00:43:29.714Z,13.04
2023-02-17T00:45:01.311Z,13.04
2023-02-17T00:46:32.878Z,13.02
2023-02-17T00:48:04.413Z,13.03
2023-02-17T00:49:36.070Z,13.03
2023-02-17T00:51:07.681Z,13.04
2023-02-17T00:52:41.078Z,13.04
2023-02-17T00:54:12.953Z,13.02
2023-02-17T00:55:44.494Z,13.03
2023-02-17T00:57:16.028Z,13.04
2023-02-17T00:58:47.673Z,13.00
2023-02-17T01:00:19.940Z,13.01
2023-02-17T01:01:51.589Z,12.99
2023-02-17T01:03:23.601Z,12.99
2023-02-17T01:04:56.282Z,13.02
2023-02-17T01:06:28.627Z,13.02
2023-02-17T01:08:01.559Z,13.01
2023-02-17T01:09:33.246Z,13.01
2023-02-17T01:11:04.914Z,12.97
2023-02-17T01:12:37.604Z,12.97
2023-02-17T01:14:12.551Z,12.97
2023-02-17T01:15:45.420Z,12.96
2023-02-17T01:17:18.003Z,12.94
2023-02-17T01:18:49.640Z,12.96
2023-02-17T01:20:23.127Z,12.94
2023-02-17T01:21:54.692Z,12.95
2023-02-17T01:23:27.613Z,12.94
2023-02-17T01:25:00.165Z,12.93
2023-02-17T01:26:33.782Z,12.93
2023-02-17T01:28:06.237Z,12.95
2023-02-17T01:29:37.787Z,12.96
2023-02-17T01:31:10.160Z,12.98
2023-02-17T01:32:42.628Z,12.97
2023-02-17T01:34:14.201Z,12.97
2023-02-17T01:35:45.739Z,12.99
2023-02-17T01:37:17.281Z,13.00
2023-02-17T01:38:50.202Z,13.02
2023-02-17T01:40:23.658Z,13.03
2023-02-17T01:41:55.224Z,13.03
2023-02-17T01:43:26.851Z,13.01
2023-02-17T01:45:16.893Z,13.02
2023-02-17T01:46:49.114Z,13.01
2023-02-17T01:48:22.473Z,13.03
2023-02-17T01:49:54.045Z,13.05
2023-02-17T01:51:28.611Z,13.04
2023-02-17T01:53:01.603Z,13.05
2023-02-17T01:54:36.563Z,13.05
2023-02-17T01:56:08.685Z,13.04
2023-02-17T01:57:44.322Z,13.05
2023-02-17T01:59:17.452Z,13.05
2023-02-17T02:00:49.673Z,13.04
2023-02-17T02:02:21.936Z,13.02
2023-02-17T02:03:53.801Z,13.02
2023-02-17T02:05:25.384Z,13.04
2023-02-17T02:06:57.159Z,13.04
2023-02-17T02:08:29.928Z,13.05
2023-02-17T02:10:02.883Z,13.07
2023-02-17T02:11:35.813Z,13.07
2023-02-17T02:13:07.874Z,13.08
2023-02-17T02:14:39.422Z,13.08
2023-02-17T02:16:14.412Z,13.06
2023-02-17T02:17:54.363Z,13.08
2023-02-17T02:19:46.413Z,13.11
2023-02-17T02:21:35.915Z,13.11
2023-02-17T02:23:16.577Z,13.11
2023-02-17T02:24:55.750Z,13.11
2023-02-17T02:26:55.494Z,13.12
2023-02-17T02:28:35.024Z,13.12
2023-02-17T02:30:15.633Z,13.12
2023-02-17T02:31:56.918Z,13.10
2023-02-17T02:33:33.207Z,13.11
2023-02-17T02:35:08.872Z,13.06
2023-02-17T02:36:43.641Z,13.10
2023-02-17T02:38:18.052Z,13.12
2023-02-17T02:39:52.322Z,13.12
2023-02-17T02:41:25.140Z,13.12
2023-02-17T02:42:57.059Z,13.11
2023-02-17T02:44:28.668Z,13.15
2023-02-17T02:46:00.333Z,13.16
2023-02-17T02:47:42.728Z,13.18
2023-02-17T02:49:15.948Z,13.22
2023-02-17T02:50:53.934Z,13.23
2023-02-17T02:52:31.638Z,13.20
2023-02-17T02:54:13.697Z,13.21
2023-02-17T02:55:52.659Z,13.23
2023-02-17T02:57:32.633Z,13.25
2023-02-17T02:59:10.938Z,13.29
2023-02-17T03:00:48.895Z,13.29
2023-02-17T03:02:28.168Z,13.31
2023-02-17T03:04:02.978Z,13.31
2023-02-17T03:05:39.551Z,13.31
2023-02-17T03:07:12.692Z,13.32
2023-02-17T03:08:48.695Z,13.28
2023-02-17T03:10:20.612Z,13.30
2023-02-17T03:11:52.460Z,13.29
2023-02-17T03:13:24.182Z,13.29
2023-02-17T03:15:00.062Z,13.29
2023-02-17T03:16:32.937Z,13.30
2023-02-17T03:18:04.976Z,13.31
2023-02-17T03:19:36.808Z,13.28
2023-02-17T03:21:14.295Z,13.29
2023-02-17T03:22:47.772Z,13.29
2023-02-17T03:24:19.996Z,13.30
2023-02-17T03:25:51.598Z,13.30
2023-02-17T03:27:23.209Z,13.32
2023-02-17T03:28:54.765Z,13.33
2023-02-17T03:30:26.540Z,13.34
2023-02-17T03:31:58.307Z,13.34
2023-02-17T03:33:29.920Z,13.33
2023-02-17T03:35:01.568Z,13.31
2023-02-17T03:36:34.495Z,13.28
2023-02-17T03:38:06.052Z,13.31
2023-02-17T03:39:37.580Z,13.31
2023-02-17T03:41:09.204Z,13.31
2023-02-17T03:42:40.760Z,13.29
2023-02-17T03:44:12.298Z,13.28
2023-02-17T03:45:43.930Z,13.28
2023-02-17T03:47:15.519Z,13.27
2023-02-17T03:48:47.341Z,13.25
2023-02-17T03:50:18.907Z,13.24
2023-02-17T03:51:51.840Z,13.24
2023-02-17T03:53:23.395Z,13.26
2023-02-17T03:54:54.959Z,13.29
2023-02-17T03:56:26.775Z,13.28
2023-02-17T03:57:58.288Z,13.32
2023-02-17T03:59:30.283Z,13.32
2023-02-17T04:01:02.043Z,13.32
2023-02-17T04:02:33.617Z,13.35
2023-02-17T04:04:05.223Z,13.35
2023-02-17T04:05:36.831Z,13.33
2023-02-17T04:07:09.755Z,13.35
2023-02-17T04:08:41.710Z,13.32
2023-02-17T04:10:13.282Z,13.33
2023-02-17T04:11:44.852Z,13.35
2023-02-17T04:13:16.391Z,13.36
2023-02-17T04:14:47.947Z,13.40
2023-02-17T04:16:19.540Z,13.37
2023-02-17T04:17:51.139Z,13.37
2023-02-17T04:19:22.770Z,13.36
2023-02-17T04:20:54.400Z,13.45
2023-02-17T04:22:27.285Z,13.42
2023-02-17T04:24:00.164Z,13.45
2023-02-17T04:25:33.655Z,13.46
2023-02-17T04:27:05.419Z,13.48
2023-02-17T04:28:40.487Z,13.51
2023-02-17T04:30:12.694Z,13.52
2023-02-17T04:31:44.487Z,13.50
2023-02-17T04:33:16.794Z,13.48
2023-02-17T04:34:48.359Z,13.48
2023-02-17T04:36:20.005Z,13.50
2023-02-17T04:37:52.953Z,13.49
2023-02-17T04:39:24.485Z,13.46
2023-02-17T04:40:56.785Z,13.45
2023-02-17T04:42:28.411Z,13.48
2023-02-17T04:43:59.936Z,13.47
2023-02-17T04:45:31.668Z,13.46
2023-02-17T04:47:03.217Z,13.43
2023-02-17T04:48:34.841Z,13.42
2023-02-17T04:50:08.825Z,13.42
2023-02-17T04:51:40.377Z,13.42
2023-02-17T04:53:14.057Z,13.40
2023-02-17T04:54:45.647Z,13.41
2023-02-17T04:56:17.218Z,13.39
2023-02-17T04:57:48.760Z,13.38
2023-02-17T04:59:20.342Z,13.39
2023-02-17T05:00:51.962Z,13.39
2023-02-17T05:02:23.652Z,13.38
2023-02-17T05:03:55.232Z,13.37
2023-02-17T05:05:27.267Z,13.36
2023-02-17T05:06:58.804Z,13.34
2023-02-17T05:08:31.683Z,13.38
2023-02-17T05:10:03.355Z,13.38
2023-02-17T05:11:35.088Z,13.45
2023-02-17T05:13:06.670Z,13.47
2023-02-17T05:14:38.508Z,13.50
2023-02-17T05:16:10.074Z,13.54
2023-02-17T05:17:41.705Z,13.54
2023-02-17T05:19:13.769Z,13.59
2023-02-17T05:20:45.341Z,13.58
2023-02-17T05:22:16.934Z,13.54
2023-02-17T05:23:49.838Z,13.54
2023-02-17T05:25:21.461Z,13.54
2023-02-17T05:26:53.074Z,13.56
2023-02-17T05:28:24.611Z,13.59
2023-02-17T05:29:56.245Z,13.57
2023-02-17T05:31:28.033Z,13.52
2023-02-17T05:33:02.175Z,13.54
2023-02-17T05:34:35.458Z,13.54
2023-02-17T05:36:08.642Z,13.50
2023-02-17T05:37:40.262Z,13.47
2023-02-17T05:39:13.213Z,13.49
2023-02-17T05:40:44.739Z,13.44
2023-02-17T05:42:16.310Z,13.42
2023-02-17T05:43:47.932Z,13.44
2023-02-17T05:45:19.495Z,13.41
2023-02-17T05:46:51.021Z,13.42
2023-02-17T05:48:22.626Z,13.40
2023-02-17T05:49:54.207Z,13.44
2023-02-17T05:51:25.783Z,13.43
2023-02-17T05:52:57.332Z,13.44
2023-02-17T05:54:30.277Z,13.47
2023-02-17T05:56:01.889Z,13.53
2023-02-17T05:57:33.482Z,13.53
2023-02-17T05:59:05.186Z,13.52
2023-02-17T06:00:36.876Z,13.56
2023-02-17T06:02:08.453Z,13.54
2023-02-17T06:03:40.052Z,13.52
2023-02-17T06:05:11.833Z,13.55
2023-02-17T06:06:43.458Z,13.53
2023-02-17T06:08:15.080Z,13.52
2023-02-17T06:09:47.982Z,13.59
2023-02-17T06:11:19.594Z,13.64
2023-02-17T06:12:51.292Z,13.67
2023-02-17T06:14:22.937Z,13.65
2023-02-17T06:15:54.556Z,13.60
2023-02-17T06:17:26.137Z,13.59
2023-02-17T06:19:00.146Z,13.60
2023-02-17T06:20:31.711Z,13.65
2023-02-17T06:22:03.291Z,13.66
2023-02-17T06:23:34.965Z,13.67
2023-02-17T06:25:08.434Z,13.68
2023-02-17T06:26:40.124Z,13.71
2023-02-17T06:28:11.697Z,13.67
2023-02-17T06:29:43.653Z,13.72
2023-02-17T06:31:15.359Z,13.72
2023-02-17T06:32:47.026Z,13.70
2023-02-17T06:34:18.688Z,13.73
2023-02-17T06:35:50.544Z,13.74
2023-02-17T06:37:22.203Z,13.70
2023-02-17T06:38:53.890Z,13.73
2023-02-17T06:40:28.762Z,13.73
2023-02-17T06:42:00.535Z,13.73
2023-02-17T06:43:32.183Z,13.75
2023-02-17T06:45:06.059Z,13.77
2023-02-17T06:46:37.655Z,13.76
2023-02-17T06:48:09.510Z,13.76
2023-02-17T06:49:41.181Z,13.72
2023-02-17T06:51:12.811Z,13.73
2023-02-17T06:52:44.319Z,13.75
2023-02-17T06:54:15.969Z,13.74
2023-02-17T06:55:48.884Z,13.70
2023-02-17T06:57:20.582Z,13.73
2023-02-17T06:58:52.182Z,13.74
2023-02-17T07:00:23.803Z,13.75
2023-02-17T07:01:55.493Z,13.74
2023-02-17T07:03:27.146Z,13.71
2023-02-17T07:04:58.681Z,13.67
2023-02-17T07:06:30.224Z,13.69
2023-02-17T07:08:01.826Z,13.71
2023-02-17T07:09:33.424Z,13.69
2023-02-17T07:11:07.071Z,13.68
2023-02-17T07:12:38.741Z,13.66
2023-02-17T07:14:10.449Z,13.68
2023-02-17T07:15:42.052Z,13.69
2023-02-17T07:17:13.800Z,13.69
2023-02-17T07:18:45.313Z,13.68
2023-02-17T07:20:16.952Z,13.71
2023-02-17T07:21:48.847Z,13.74
2023-02-17T07:23:20.367Z,13.71
2023-02-17T07:24:52.112Z,13.73
2023-02-17T07:26:25.052Z,13.76
2023-02-17T07:27:56.673Z,13.81
2023-02-17T07:29:28.336Z,13.77
2023-02-17T07:31:04.927Z,13.76
2023-02-17T07:32:36.685Z,13.81
2023-02-17T07:34:08.302Z,13.82
2023-02-17T07:35:40.621Z,13.87
2023-02-17T07:37:12.219Z,13.90
2023-02-17T07:38:43.890Z,13.90
2023-02-17T07:40:17.770Z,13.89
2023-02-17T07:41:50.787Z,13.92
2023-02-17T07:43:23.264Z,13.94
2023-02-17T07:44:55.513Z,13.90
2023-02-17T07:46:28.101Z,13.85
2023-02-17T07:47:59.618Z,13.87
2023-02-17T07:49:31.491Z,13.91
2023-02-17T07:51:06.739Z,13.93
2023-02-17T07:52:38.517Z,13.93
2023-02-17T07:54:10.153Z,13.94
2023-02-17T07:55:41.895Z,13.94
2023-02-17T07:57:14.858Z,13.96
2023-02-17T07:58:46.429Z,13.96
2023-02-17T08:00:18.241Z,13.95
2023-02-17T08:01:49.954Z,13.94
2023-02-17T08:03:21.574Z,13.99
2023-02-17T08:04:53.276Z,14.02
2023-02-17T08:06:25.466Z,14.05
2023-02-17T08:08:15.496Z,13.98
2023-02-17T08:10:05.585Z,14.03
2023-02-17T08:11:55.818Z,14.05
2023-02-17T08:13:28.718Z,14.11
2023-02-17T08:15:00.376Z,14.12
2023-02-17T08:16:32.013Z,14.15
2023-02-17T08:18:05.045Z,14.18
2023-02-17T08:19:47.626Z,14.21
2023-02-17T08:21:19.896Z,14.19
2023-02-17T08:22:51.484Z,14.20
2023-02-17T08:24:23.129Z,14.18
2023-02-17T08:25:57.538Z,14.22
2023-02-17T08:27:29.089Z,14.23
2023-02-17T08:29:02.486Z,14.25
2023-02-17T08:30:35.549Z,14.24
2023-02-17T08:32:07.504Z,14.24
2023-02-17T08:33:39.120Z,14.20
2023-02-17T08:35:10.691Z,14.22
2023-02-17T08:36:42.426Z,14.24
2023-02-17T08:38:14.029Z,14.26
2023-02-17T08:39:45.559Z,14.27
2023-02-17T08:41:18.732Z,14.26
2023-02-17T08:42:50.364Z,14.30
2023-02-17T08:44:23.766Z,14.34
2023-02-17T08:45:56.315Z,14.40
2023-02-17T08:47:28.091Z,14.45
2023-02-17T08:48:59.778Z,14.45
2023-02-17T08:50:31.542Z,14.49
2023-02-17T08:52:03.626Z,14.51
2023-02-17T08:53:35.204Z,14.53
2023-02-17T08:55:06.886Z,14.55
2023-02-17T08:56:39.271Z,14.58
2023-02-17T08:58:10.936Z,14.64
2023-02-17T08:59:45.158Z,14.65
2023-02-17T09:01:18.968Z,14.68
2023-02-17T09:02:50.714Z,14.72
2023-02-17T09:04:22.516Z,14.78
2023-02-17T09:05:54.559Z,14.78
2023-02-17T09:07:26.545Z,14.82
2023-02-17T09:08:58.191Z,14.86
2023-02-17T09:10:30.777Z,14.88
2023-02-17T09:12:02.396Z,14.92
2023-02-17T09:13:34.289Z,14.90
2023-02-17T09:15:07.741Z,14.89
2023-02-17T09:16:41.354Z,14.91
2023-02-17T09:18:13.380Z,14.94
2023-02-17T09:19:44.928Z,14.98
2023-02-17T09:21:17.908Z,15.00
2023-02-17T09:22:51.487Z,15.03
2023-02-17T09:24:23.668Z,15.05
2023-02-17T09:26:01.270Z,15.05
2023-02-17T09:27:32.823Z,15.05
2023-02-17T09:29:05.018Z,15.08
2023-02-17T09:30:38.053Z,15.15
2023-02-17T09:32:09.892Z,15.25
2023-02-17T09:33:41.885Z,15.32
2023-02-17T09:35:14.134Z,15.33
2023-02-17T09:36:45.834Z,15.34
2023-02-17T09:38:17.429Z,15.36
2023-02-17T09:39:49.126Z,15.45
2023-02-17T09:41:22.697Z,15.48
2023-02-17T09:42:54.470Z,15.53
2023-02-17T09:44:38.803Z,15.59
2023-02-17T09:46:15.942Z,15.53
2023-02-17T09:47:49.807Z,15.58
2023-02-17T09:49:23.850Z,15.55
2023-02-17T09:50:56.456Z,15.56
2023-02-17T09:52:33.809Z,15.56
2023-02-17T09:54:08.410Z,15.52
2023-02-17T09:55:42.412Z,15.41
2023-02-17T09:57:19.725Z,15.45
2023-02-17T09:58:53.249Z,15.46
2023-02-17T10:00:26.711Z,15.52
2023-02-17T10:02:00.212Z,15.59
2023-02-17T10:03:35.812Z,15.62
2023-02-17T10:05:10.725Z,15.66
2023-02-17T10:06:44.910Z,15.70
2023-02-17T10:08:18.039Z,15.82
2023-02-17T10:09:51.762Z,15.84
2023-02-17T10:11:26.914Z,15.76
2023-02-17T10:13:00.556Z,15.85
2023-02-17T10:14:34.994Z,15.88
2023-02-17T10:16:09.567Z,15.91
2023-02-17T10:17:46.026Z,15.99
2023-02-17T10:19:21.130Z,16.04
2023-02-17T10:20:57.468Z,16.16
2023-02-17T10:22:30.631Z,16.22
2023-02-17T10:24:02.217Z,16.28
2023-02-17T10:25:54.850Z,16.36
2023-02-17T10:27:37.487Z,16.42
2023-02-17T10:29:14.587Z,16.43
2023-02-17T10:30:49.701Z,16.47
2023-02-17T10:32:25.443Z,16.42
2023-02-17T10:34:01.683Z,16.40
2023-02-17T10:35:40.065Z,16.42
2023-02-17T10:37:14.089Z,16.47
2023-02-17T10:38:49.314Z,16.45
2023-02-17T10:40:22.536Z,16.44
2023-02-17T10:41:54.962Z,16.47
2023-02-17T10:43:30.057Z,16.53
2023-02-17T10:45:03.513Z,16.57
2023-02-17T10:46:35.201Z,16.56
2023-02-17T10:48:08.988Z,16.58
2023-02-17T10:49:45.660Z,16.58
2023-02-17T10:51:18.894Z,16.56
2023-02-17T10:52:51.219Z,16.55
2023-02-17T10:54:29.077Z,16.57
2023-02-17T10:56:04.159Z,16.60
2023-02-17T10:57:37.516Z,16.62
2023-02-17T10:59:14.476Z,16.47
2023-02-17T11:00:47.862Z,16.47
2023-02-17T11:02:20.569Z,16.54
2023-02-17T11:04:02.166Z,16.63
2023-02-17T11:05:35.199Z,16.56
2023-02-17T11:07:11.505Z,16.60
2023-02-17T11:08:46.317Z,16.64
2023-02-17T11:10:22.071Z,16.72
2023-02-17T11:11:57.964Z,16.70
2023-02-17T11:13:34.348Z,16.71
2023-02-17T11:15:14.523Z,16.78
2023-02-17T11:16:47.600Z,16.80
2023-02-17T11:18:21.571Z,16.86
2023-02-17T11:19:58.120Z,16.98
2023-02-17T11:21:35.365Z,17.02
2023-02-17T11:23:20.867Z,17.10
2023-02-17T11:24:57.945Z,17.16
2023-02-17T11:26:31.412Z,17.17
2023-02-17T11:28:04.864Z,17.22
2023-02-17T11:29:36.396Z,17.17
2023-02-17T11:31:22.150Z,17.14
2023-02-17T11:32:55.666Z,17.15
2023-02-17T11:34:28.791Z,17.16
2023-02-17T11:36:00.746Z,17.22
2023-02-17T11:37:37.863Z,17.24
2023-02-17T11:39:17.102Z,17.30
2023-02-17T11:40:53.097Z,17.31
2023-02-17T11:42:25.326Z,17.36
2023-02-17T11:44:00.622Z,17.37
2023-02-17T11:45:36.418Z,17.37
2023-02-17T11:47:12.443Z,17.37
2023-02-17T11:49:00.622Z,17.37
2023-02-17T11:50:41.574Z,17.43
2023-02-17T11:52:24.104Z,17.42
2023-02-17T11:54:03.550Z,17.41
2023-02-17T11:55:39.398Z,17.44
2023-02-17T11:57:17.437Z,17.32
2023-02-17T11:58:58.186Z,17.38
2023-02-17T12:00:33.262Z,17.37
2023-02-17T12:02:22.360Z,17.33
2023-02-17T12:04:08.932Z,17.26
2023-02-17T12:05:49.398Z,17.09
2023-02-17T12:07:41.805Z,17.13
2023-02-17T12:09:19.039Z,17.17
2023-02-17T12:10:59.309Z,17.19
2023-02-17T12:12:35.477Z,17.23
2023-02-17T12:14:18.835Z,17.23
2023-02-17T12:15:56.851Z,17.26
2023-02-17T12:17:35.615Z,17.27
2023-02-17T12:19:15.867Z,17.36
2023-02-17T12:20:51.314Z,17.28
2023-02-17T12:22:30.602Z,17.32
2023-02-17T12:24:10.304Z,17.33
2023-02-17T12:25:45.203Z,17.43
2023-02-17T12:27:24.242Z,17.47
2023-02-17T12:29:02.279Z,17.47
2023-02-17T12:30:42.510Z,17.59
2023-02-17T12:32:19.001Z,17.79
2023-02-17T12:33:56.616Z,18.02
2023-02-17T12:35:31.521Z,18.05
2023-02-17T12:37:05.388Z,18.13
2023-02-17T12:38:39.380Z,18.22
2023-02-17T12:40:15.867Z,18.36
2023-02-17T12:41:50.937Z,18.45
2023-02-17T12:43:25.697Z,18.47
2023-02-17T12:44:59.862Z,18.39
2023-02-17T12:46:35.099Z,18.39
2023-02-17T12:48:12.864Z,18.40
2023-02-17T12:49:48.630Z,18.33
2023-02-17T12:51:22.478Z,18.28
2023-02-17T12:52:55.469Z,18.25
2023-02-17T12:54:31.582Z,18.28
2023-02-17T12:56:05.206Z,18.17
2023-02-17T12:57:41.829Z,18.09
2023-02-17T12:59:15.509Z,18.12
2023-02-17T13:00:49.689Z,18.09
2023-02-17T13:02:22.440Z,18.06
2023-02-17T13:03:54.178Z,17.98
2023-02-17T13:05:28.531Z,17.86
2023-02-17T13:07:04.192Z,17.81
2023-02-17T13:08:38.724Z,17.81
2023-02-17T13:10:21.353Z,17.69
2023-02-17T13:11:52.990Z,17.70
2023-02-17T13:13:28.010Z,17.70
2023-02-17T13:15:00.809Z,17.87
2023-02-17T13:16:41.973Z,18.01
2023-02-17T13:18:14.535Z,18.08
2023-02-17T13:19:46.151Z,18.21
2023-02-17T13:21:27.604Z,18.25
2023-02-17T13:23:06.510Z,18.16
2023-02-17T13:24:39.019Z,18.12
2023-02-17T13:26:34.656Z,17.94
2023-02-17T13:28:21.135Z,17.89
2023-02-17T13:30:00.529Z,17.84
2023-02-17T13:31:32.348Z,17.55
2023-02-17T13:33:04.723Z,17.42
2023-02-17T13:34:38.298Z,17.44
2023-02-17T13:36:16.783Z,17.58
2023-02-17T13:37:48.386Z,17.67
2023-02-17T13:39:31.123Z,17.79
2023-02-17T13:41:07.273Z,17.78
2023-02-17T13:42:40.062Z,17.86
2023-02-17T13:44:26.694Z,17.85
2023-02-17T13:46:00.627Z,17.76
2023-02-17T13:47:37.535Z,17.84
2023-02-17T13:49:20.999Z,17.82
2023-02-17T13:50:53.768Z,17.91
2023-02-17T13:52:27.390Z,17.98
2023-02-17T13:54:05.716Z,18.01
2023-02-17T13:55:41.636Z,17.97
2023-02-17T13:57:22.264Z,17.96
2023-02-17T13:58:54.325Z,17.99
2023-02-17T14:00:27.657Z,18.02
2023-02-17T14:02:03.987Z,18.01
2023-02-17T14:03:41.411Z,17.85
2023-02-17T14:05:17.895Z,17.75
2023-02-17T14:06:50.046Z,17.67
2023-02-17T14:08:27.038Z,17.68
2023-02-17T14:09:59.725Z,17.67
2023-02-17T14:11:33.086Z,17.68
2023-02-17T14:13:05.107Z,17.72
2023-02-17T14:14:38.201Z,17.66
2023-02-17T14:16:26.180Z,17.60
2023-02-17T14:17:59.254Z,17.48
2023-02-17T14:19:42.214Z,17.23
2023-02-17T14:21:24.160Z,16.97
2023-02-17T14:23:04.810Z,16.89
2023-02-17T14:24:37.877Z,16.86
2023-02-17T14:26:12.754Z,16.86
2023-02-17T14:27:45.591Z,16.84
2023-02-17T14:29:17.189Z,16.86
2023-02-17T14:30:49.931Z,16.80
2023-02-17T14:32:30.651Z,16.79
2023-02-17T14:34:04.122Z,16.71
2023-02-17T14:35:41.404Z,16.63
2023-02-17T14:37:18.666Z,16.61
2023-02-17T14:38:55.087Z,16.68
2023-02-17T14:40:27.796Z,16.62
2023-02-17T14:41:59.398Z,16.56
2023-02-17T14:43:33.241Z,16.56
2023-02-17T14:45:05.124Z,16.47
2023-02-17T14:46:44.695Z,16.40
2023-02-17T14:48:16.537Z,16.35
2023-02-17T14:49:49.534Z,16.24
2023-02-17T14:51:21.977Z,16.16
2023-02-17T14:52:53.871Z,16.15
2023-02-17T14:54:27.125Z,16.12
2023-02-17T14:56:01.009Z,16.10
2023-02-17T14:57:32.615Z,16.10
2023-02-17T14:59:04.499Z,16.03
2023-02-17T15:00:36.117Z,16.08
2023-02-17T15:02:12.639Z,16.17
2023-02-17T15:03:44.400Z,16.22
2023-02-17T15:05:17.553Z,16.14
2023-02-17T15:06:50.840Z,16.07
2023-02-17T15:08:27.826Z,16.00
2023-02-17T15:09:59.465Z,16.08
2023-02-17T15:11:34.398Z,16.07
2023-02-17T15:13:06.560Z,16.06
2023-02-17T15:14:38.114Z,15.91
2023-02-17T15:16:10.101Z,15.92
2023-02-17T15:17:41.862Z,15.98
2023-02-17T15:19:14.070Z,15.98
2023-02-17T15:20:48.037Z,15.93
2023-02-17T15:22:19.645Z,15.81
2023-02-17T15:23:51.696Z,15.68
2023-02-17T15:25:24.036Z,15.57
2023-02-17T15:26:55.657Z,15.36
2023-02-17T15:28:27.223Z,15.33
2023-02-17T15:29:58.949Z,15.25
2023-02-17T15:31:32.531Z,15.23
2023-02-17T15:33:04.529Z,15.29
2023-02-17T15:34:36.489Z,15.17
2023-02-17T15:36:13.679Z,15.12
2023-02-17T15:37:45.400Z,15.14
2023-02-17T15:39:18.254Z,15.22
2023-02-17T15:40:50.097Z,15.33
2023-02-17T15:42:21.776Z,15.38
2023-02-17T15:43:54.548Z,15.42
2023-02-17T15:45:26.291Z,15.32
2023-02-17T15:46:58.002Z,15.15
2023-02-17T15:48:34.045Z,15.09
2023-02-17T15:50:06.985Z,15.10
2023-02-17T15:51:40.482Z,15.08
2023-02-17T15:53:12.196Z,15.02
2023-02-17T15:54:43.959Z,15.00
2023-02-17T15:56:19.113Z,14.99
2023-02-17T15:57:56.799Z,14.94
2023-02-17T15:59:28.414Z,14.80
2023-02-17T16:01:01.522Z,14.87
2023-02-17T16:02:33.286Z,14.85
2023-02-17T16:04:06.196Z,14.73
2023-02-17T16:05:37.943Z,14.83
2023-02-17T16:07:11.228Z,14.96
2023-02-17T16:08:43.006Z,15.10
2023-02-17T16:10:16.224Z,15.11
2023-02-17T16:11:49.163Z,15.08
2023-02-17T16:13:21.023Z,15.07
2023-02-17T16:14:52.716Z,15.01
2023-02-17T16:16:25.430Z,14.94
2023-02-17T16:17:58.705Z,14.88
2023-02-17T16:19:31.528Z,14.87
2023-02-17T16:21:03.096Z,14.89
2023-02-17T16:22:36.101Z,14.95
2023-02-17T16:24:07.719Z,14.92
2023-02-17T16:25:41.904Z,14.94
2023-02-17T16:27:14.455Z,14.99
2023-02-17T16:28:46.404Z,14.89
2023-02-17T16:30:19.377Z,14.95
2023-02-17T16:31:51.919Z,14.99
2023-02-17T16:33:24.663Z,15.08
2023-02-17T16:34:56.382Z,15.11
2023-02-17T16:36:30.225Z,14.96
2023-02-17T16:38:05.429Z,15.02
2023-02-17T16:39:38.292Z,15.13
2023-02-17T16:41:12.412Z,15.24
2023-02-17T16:42:44.105Z,15.22
2023-02-17T16:44:16.210Z,15.18
2023-02-17T16:45:50.028Z,15.20
2023-02-17T16:47:22.701Z,15.26
2023-02-17T16:48:54.680Z,15.24
2023-02-17T16:50:27.682Z,15.23
2023-02-17T16:51:59.900Z,15.26
2023-02-17T16:53:32.838Z,15.25
2023-02-17T16:55:05.284Z,15.21
2023-02-17T16:56:37.628Z,15.24
2023-02-17T16:58:15.009Z,15.25
2023-02-17T16:59:47.328Z,15.28
2023-02-17T17:01:19.075Z,15.17
2023-02-17T17:02:51.028Z,15.24
2023-02-17T17:04:22.680Z,15.16
2023-02-17T17:05:54.233Z,15.13
2023-02-17T17:07:25.912Z,15.02
2023-02-17T17:08:58.918Z,15.06
2023-02-17T17:10:31.533Z,15.00
2023-02-17T17:12:03.194Z,14.88
2023-02-17T17:13:34.731Z,14.84
2023-02-17T17:15:07.051Z,14.78
2023-02-17T17:16:40.210Z,14.82
2023-02-17T17:18:17.879Z,14.76
2023-02-17T17:19:49.526Z,14.58
2023-02-17T17:21:21.214Z,14.53
2023-02-17T17:22:52.881Z,14.52
2023-02-17T17:24:25.895Z,14.59
2023-02-17T17:25:57.541Z,14.67
2023-02-17T17:27:29.116Z,14.73
2023-02-17T17:29:00.834Z,14.71
2023-02-17T17:30:35.630Z,14.65
2023-02-17T17:32:07.566Z,14.58
2023-02-17T17:33:41.282Z,14.53
2023-02-17T17:35:13.117Z,14.48
2023-02-17T17:36:45.661Z,14.52
2023-02-17T17:38:17.358Z,14.59
2023-02-17T17:39:57.503Z,14.58
2023-02-17T17:41:29.868Z,14.52
2023-02-17T17:43:01.507Z,14.59
2023-02-17T17:44:33.331Z,14.69
2023-02-17T17:46:06.206Z,14.77
2023-02-17T17:47:38.283Z,14.78
2023-02-17T17:49:12.213Z,14.80
2023-02-17T17:50:44.364Z,14.88
2023-02-17T17:52:16.054Z,14.87
2023-02-17T17:53:47.834Z,14.83
2023-02-17T17:55:21.468Z,14.85
2023-02-17T17:56:53.392Z,14.86
2023-02-17T17:58:25.068Z,14.77
2023-02-17T17:59:57.011Z,14.81
2023-02-17T18:01:28.896Z,14.88
2023-02-17T18:03:00.608Z,14.93
2023-02-17T18:04:34.937Z,14.91
2023-02-17T18:06:07.961Z,14.96
2023-02-17T18:07:40.640Z,14.92
2023-02-17T18:09:25.762Z,14.93
2023-02-17T18:11:03.758Z,14.85
2023-02-17T18:12:36.578Z,14.75
2023-02-17T18:14:11.482Z,14.73
2023-02-17T18:15:44.309Z,14.70
2023-02-17T18:17:18.046Z,14.70
2023-02-17T18:18:49.853Z,14.70
2023-02-17T18:20:21.700Z,14.71
2023-02-17T18:21:53.348Z,14.74
2023-02-17T18:23:24.945Z,14.73
2023-02-17T18:24:56.558Z,14.74
2023-02-17T18:26:29.501Z,14.82
2023-02-17T18:28:01.131Z,14.86
2023-02-17T18:29:32.812Z,14.86
2023-02-17T18:31:06.236Z,14.92
2023-02-17T18:32:37.952Z,14.89
2023-02-17T18:34:09.592Z,14.88
2023-02-17T18:35:43.367Z,14.93
2023-02-17T18:37:15.980Z,14.96
2023-02-17T18:38:47.844Z,14.99
2023-02-17T18:40:20.405Z,14.94
2023-02-17T18:41:53.627Z,14.88
2023-02-17T18:43:25.196Z,14.91
2023-02-17T18:44:56.816Z,14.90
2023-02-17T18:46:28.486Z,14.93
2023-02-17T18:48:00.166Z,14.90
2023-02-17T18:49:31.773Z,14.90
2023-02-17T18:51:05.357Z,14.88
2023-02-17T18:52:37.344Z,14.87
2023-02-17T18:54:10.916Z,14.91
2023-02-17T18:55:43.117Z,14.95
2023-02-17T18:57:16.754Z,14.96
2023-02-17T18:58:49.608Z,14.95
2023-02-17T19:00:21.367Z,14.92
2023-02-17T19:01:53.122Z,14.85
2023-02-17T19:03:24.700Z,14.84
2023-02-17T19:04:56.357Z,14.85
2023-02-17T19:06:34.541Z,14.78
2023-02-17T19:08:07.943Z,14.79
2023-02-17T19:09:42.264Z,14.80
2023-02-17T19:11:14.701Z,14.81
2023-02-17T19:12:47.953Z,14.82
2023-02-17T19:14:19.495Z,14.83
2023-02-17T19:15:51.467Z,14.82
2023-02-17T19:17:23.689Z,14.81
2023-02-17T19:18:55.575Z,14.82
2023-02-17T19:20:27.454Z,14.85
2023-02-17T19:21:59.080Z,14.80
2023-02-17T19:23:30.688Z,14.82
2023-02-17T19:25:02.935Z,14.82
2023-02-17T19:26:36.171Z,14.84
2023-02-17T19:28:09.167Z,14.79
2023-02-17T19:29:40.995Z,14.65
2023-02-17T19:31:13.771Z,14.63
2023-02-17T19:32:45.590Z,14.56
2023-02-17T19:34:20.309Z,14.53
2023-02-17T19:35:52.603Z,14.56
2023-02-17T19:37:24.178Z,14.56
2023-02-17T19:38:56.767Z,14.52
2023-02-17T19:40:28.350Z,14.55
2023-02-17T19:41:59.926Z,14.54
2023-02-17T19:43:32.897Z,14.58
2023-02-17T19:45:04.997Z,14.57
2023-02-17T19:46:39.228Z,14.57
2023-02-17T19:48:10.923Z,14.53
2023-02-17T19:49:42.497Z,14.56
2023-02-17T19:51:14.208Z,14.54
2023-02-17T19:52:46.293Z,14.48
2023-02-17T19:54:17.876Z,14.48
2023-02-17T19:55:49.538Z,14.51
2023-02-17T19:57:21.108Z,14.51
2023-02-17T19:58:54.350Z,14.49
2023-02-17T20:00:25.917Z,14.48
2023-02-17T20:01:58.090Z,14.44
2023-02-17T20:03:29.708Z,14.47
2023-02-17T20:05:01.289Z,14.52
2023-02-17T20:06:34.745Z,14.56